Time;durP1;ratioP1;P1;durP2;ratioP2;P2;SDS_P1;SDS_P2;PMS_P1;PMS_P2;Temp;Humidity;BMP_temperature;BMP_pressure;BME280_temperature;BME280_humidity;BME280_pressure;Samples;Min_cycle;Max_cycle;Signal;HPM_P1;HPM_P2
2023/10/20 00:00:18;;;;;;;8.73;4.40;;;7.70;99.90;;;;;;4253097;27;20110;-83
2023/10/20 00:02:19;;;;;;;7.97;4.50;;;7.70;99.90;;;;;;4230414;28;20058;-83
2023/10/20 00:04:20;;;;;;;7.45;4.20;;;7.70;99.90;;;;;;4218499;28;20044;-83
2023/10/20 00:06:21;;;;;;;6.35;4.38;;;7.90;99.90;;;;;;4222365;28;20043;-83
2023/10/20 00:08:23;;;;;;;8.43;3.40;;;7.70;99.90;;;;;;4230008;28;20074;-83
2023/10/20 00:10:24;;;;;;;6.80;3.40;;;7.60;99.90;;;;;;4222423;28;20111;-83
2023/10/20 00:12:24;;;;;;;7.53;3.90;;;7.80;99.90;;;;;;4229565;28;20046;-83
2023/10/20 00:14:25;;;;;;;6.70;4.00;;;7.20;99.90;;;;;;4245608;27;20042;-83
2023/10/20 00:16:28;;;;;;;9.35;4.15;;;7.70;99.90;;;;;;4233770;28;20048;-83
2023/10/20 00:18:29;;;;;;;7.03;4.15;;;7.60;99.90;;;;;;4204552;28;20045;-83
2023/10/20 00:20:32;;;;;;;8.00;4.13;;;7.70;99.90;;;;;;4249626;27;20044;-83
2023/10/20 00:22:33;;;;;;;7.20;3.88;;;7.70;99.90;;;;;;4252393;27;20031;-83
2023/10/20 00:24:33;;;;;;;6.45;4.20;;;7.60;99.90;;;;;;4238661;27;20043;-83
2023/10/20 00:26:34;;;;;;;8.95;4.05;;;7.70;99.90;;;;;;4248716;27;20035;-83
2023/10/20 00:28:35;;;;;;;6.35;4.00;;;7.70;99.90;;;;;;4219944;28;20044;-83
2023/10/20 00:30:37;;;;;;;8.90;4.15;;;7.70;99.90;;;;;;4214028;28;20103;-83
2023/10/20 00:32:41;;;;;;;6.85;3.85;;;7.70;99.90;;;;;;4236883;27;20377;-83
2023/10/20 00:34:41;;;;;;;6.00;3.42;;;7.80;99.90;;;;;;4247952;27;20035;-83
2023/10/20 00:36:43;;;;;;;7.50;3.63;;;7.80;99.90;;;;;;4201345;28;20056;-83
2023/10/20 00:38:44;;;;;;;8.25;4.05;;;7.40;99.90;;;;;;4231374;28;20047;-83
2023/10/20 00:40:49;;;;;;;7.03;3.80;;;7.70;99.90;;;;;;4236382;27;20043;-83
2023/10/20 00:42:50;;;;;;;6.53;3.63;;;7.70;99.90;;;;;;4250527;27;20519;-83
2023/10/20 00:44:53;;;;;;;7.75;3.53;;;7.70;99.90;;;;;;4232770;28;20130;-83
2023/10/20 00:46:55;;;;;;;7.45;3.63;;;7.40;99.90;;;;;;4216379;28;20151;-83
2023/10/20 00:48:57;;;;;;;8.82;3.97;;;7.90;99.90;;;;;;4251007;27;20042;-82
2023/10/20 00:51:00;;;;;;;8.68;3.97;;;7.70;99.90;;;;;;4251404;27;20122;-83
2023/10/20 00:53:02;;;;;;;7.18;4.13;;;7.70;99.90;;;;;;4234443;27;20500;-83
2023/10/20 00:55:07;;;;;;;6.47;3.67;;;8.30;99.90;;;;;;4250295;27;20046;-84
2023/10/20 00:57:07;;;;;;;7.20;3.60;;;7.70;99.90;;;;;;4235716;27;20513;-83
2023/10/20 00:59:09;;;;;;;7.43;4.15;;;8.00;99.90;;;;;;4251368;27;20114;-83
2023/10/20 01:01:11;;;;;;;8.32;3.97;;;8.30;99.90;;;;;;4231753;28;20628;-83
2023/10/20 01:03:12;;;;;;;7.20;4.05;;;7.70;99.90;;;;;;4236149;27;20043;-84
2023/10/20 01:05:22;;;;;;;8.00;4.30;;;7.70;99.90;;;;;;4230741;28;20058;-83
2023/10/20 01:07:24;;;;;;;9.25;4.38;;;7.80;99.90;;;;;;4202505;28;20044;-83
2023/10/20 01:09:26;;;;;;;7.28;3.95;;;7.70;99.90;;;;;;4211571;28;20036;-84
2023/10/20 01:11:27;;;;;;;7.72;4.03;;;7.70;99.90;;;;;;4212584;28;20055;-83
2023/10/20 01:13:28;;;;;;;8.85;4.45;;;7.70;99.90;;;;;;4232406;28;20051;-83
2023/10/20 01:15:28;;;;;;;10.55;4.57;;;7.70;99.90;;;;;;4232640;28;20473;-83
2023/10/20 01:17:30;;;;;;;9.57;4.78;;;7.70;99.90;;;;;;4250951;27;20039;-83
2023/10/20 01:19:32;;;;;;;9.68;4.30;;;7.60;99.90;;;;;;4228905;28;20044;-83
2023/10/20 01:21:33;;;;;;;10.40;4.88;;;7.70;99.90;;;;;;4250501;27;20050;-83
2023/10/20 01:23:34;;;;;;;7.90;4.75;;;7.70;99.90;;;;;;4227021;28;20044;-83
2023/10/20 01:25:35;;;;;;;10.15;5.00;;;7.80;99.90;;;;;;4220128;28;20048;-83
2023/10/20 01:27:37;;;;;;;8.65;4.38;;;7.70;99.90;;;;;;4249731;27;20071;-83
2023/10/20 01:29:38;;;;;;;11.25;4.85;;;7.70;99.90;;;;;;4232457;28;20171;-83
2023/10/20 01:31:39;;;;;;;8.57;5.00;;;7.70;99.90;;;;;;4244393;27;20380;-83
2023/10/20 01:33:40;;;;;;;10.98;5.28;;;7.70;99.90;;;;;;4239535;27;20051;-83
2023/10/20 01:35:41;;;;;;;10.82;4.72;;;7.70;99.90;;;;;;4225877;28;20556;-83
2023/10/20 01:37:42;;;;;;;10.95;5.70;;;8.20;99.90;;;;;;4221177;28;20051;-83
2023/10/20 01:39:43;;;;;;;12.18;5.85;;;7.90;99.90;;;;;;4225599;28;20048;-83
2023/10/20 01:41:44;;;;;;;11.25;5.75;;;7.70;99.90;;;;;;4214935;28;20382;-83
2023/10/20 01:43:45;;;;;;;14.55;6.75;;;8.20;99.90;;;;;;4215428;28;20477;-82
2023/10/20 01:45:45;;;;;;;11.18;5.95;;;7.90;99.90;;;;;;4232895;28;20575;-84
2023/10/20 01:47:47;;;;;;;14.57;5.55;;;7.70;99.90;;;;;;4222182;28;20139;-83
2023/10/20 01:49:48;;;;;;;14.25;6.22;;;8.20;99.90;;;;;;4214981;28;20522;-83
2023/10/20 01:51:50;;;;;;;14.02;5.88;;;7.70;99.90;;;;;;4208849;28;20047;-83
2023/10/20 01:53:51;;;;;;;13.20;5.90;;;7.70;99.90;;;;;;4206401;28;20071;-83
2023/10/20 01:55:53;;;;;;;12.85;5.97;;;7.70;99.90;;;;;;4208655;28;20115;-83
2023/10/20 01:57:54;;;;;;;13.43;6.15;;;7.70;99.90;;;;;;4207203;28;20063;-83
2023/10/20 01:59:55;;;;;;;17.65;6.95;;;7.70;99.90;;;;;;4207322;28;20032;-83
2023/10/20 02:01:55;;;;;;;15.35;7.18;;;7.70;99.90;;;;;;4207219;28;20127;-84
2023/10/20 02:03:56;;;;;;;14.70;8.23;;;8.20;99.90;;;;;;4206799;28;20054;-83
2023/10/20 02:05:57;;;;;;;14.68;6.60;;;7.70;99.90;;;;;;4199205;28;20113;-84
2023/10/20 02:07:58;;;;;;;18.45;7.72;;;7.00;99.90;;;;;;4208136;28;20799;-83
2023/10/20 02:09:59;;;;;;;12.98;6.80;;;7.90;99.90;;;;;;4209166;28;20056;-83
2023/10/20 02:12:03;;;;;;;14.95;8.10;;;7.70;99.90;;;;;;4214485;28;20159;-83
2023/10/20 02:14:04;;;;;;;17.90;7.32;;;7.70;99.90;;;;;;4205079;28;20120;-83
2023/10/20 02:16:08;;;;;;;13.23;7.05;;;7.60;99.90;;;;;;4207459;28;20090;-83
2023/10/20 02:18:08;;;;;;;16.10;7.55;;;7.70;99.90;;;;;;4205757;28;20044;-83
2023/10/20 02:20:09;;;;;;;20.05;7.75;;;8.30;99.90;;;;;;4209286;28;20048;-83
2023/10/20 02:22:10;;;;;;;15.10;7.65;;;7.70;99.90;;;;;;4205390;28;20051;-83
2023/10/20 02:24:11;;;;;;;18.17;7.55;;;7.50;99.90;;;;;;4191641;28;20131;-83
2023/10/20 02:26:12;;;;;;;15.98;7.43;;;7.70;99.90;;;;;;4187359;28;20049;-83
2023/10/20 02:28:13;;;;;;;16.40;8.07;;;7.70;99.90;;;;;;4207486;28;20055;-83
2023/10/20 02:30:15;;;;;;;19.05;7.32;;;7.70;99.90;;;;;;4204242;28;20052;-84
2023/10/20 02:32:18;;;;;;;18.27;8.25;;;7.70;99.90;;;;;;4199557;28;20043;-84
2023/10/20 02:34:20;;;;;;;16.45;7.72;;;7.60;99.90;;;;;;4209447;28;20039;-83
2023/10/20 02:36:22;;;;;;;18.60;8.82;;;7.70;99.90;;;;;;4216720;28;20119;-83
2023/10/20 02:38:23;;;;;;;18.23;9.00;;;7.70;99.90;;;;;;4205849;28;20044;-83
2023/10/20 02:40:23;;;;;;;20.63;8.82;;;7.80;99.90;;;;;;4214298;28;20067;-84
2023/10/20 02:42:24;;;;;;;18.33;9.23;;;7.70;99.90;;;;;;4205266;28;20110;-83
2023/10/20 02:44:27;;;;;;;22.58;9.10;;;7.20;99.90;;;;;;4212912;28;20040;-84
2023/10/20 02:46:30;;;;;;;18.50;9.57;;;7.60;99.90;;;;;;4217341;28;20539;-84
2023/10/20 02:48:31;;;;;;;20.67;8.95;;;8.00;99.90;;;;;;4203241;28;20511;-83
2023/10/20 02:50:33;;;;;;;16.55;8.20;;;7.60;99.90;;;;;;4221031;28;20064;-83
2023/10/20 02:52:33;;;;;;;18.58;8.90;;;7.60;99.90;;;;;;4218422;28;20184;-83
2023/10/20 02:54:34;;;;;;;17.85;8.65;;;7.60;99.90;;;;;;4228370;28;20061;-83
2023/10/20 02:56:35;;;;;;;16.48;7.80;;;8.30;99.90;;;;;;4232464;28;20054;-83
2023/10/20 02:58:35;;;;;;;22.65;9.48;;;7.60;99.90;;;;;;4201698;28;20416;-83
2023/10/20 03:00:44;;;;;;;21.02;9.13;;;7.60;99.90;;;;;;4216015;28;20069;-83
2023/10/20 03:02:48;;;;;;;20.00;9.63;;;7.60;99.90;;;;;;4230667;28;20044;-83
2023/10/20 03:04:54;;;;;;;19.48;8.57;;;8.20;99.90;;;;;;4198953;28;20458;-82
2023/10/20 03:06:55;;;;;;;18.55;9.02;;;7.50;99.90;;;;;;4214034;28;20063;-83
2023/10/20 03:08:55;;;;;;;21.33;8.65;;;7.50;99.90;;;;;;4214448;28;20692;-83
2023/10/20 03:10:57;;;;;;;18.85;8.43;;;7.50;99.90;;;;;;4213379;28;20052;-83
2023/10/20 03:12:58;;;;;;;20.67;8.63;;;7.70;99.90;;;;;;4232248;28;20086;-83
2023/10/20 03:14:59;;;;;;;17.85;8.43;;;7.70;99.90;;;;;;4230895;28;20042;-83
2023/10/20 03:17:00;;;;;;;18.73;7.95;;;7.50;99.90;;;;;;4214122;28;20048;-83
2023/10/20 03:19:01;;;;;;;23.02;8.48;;;7.50;99.90;;;;;;4231700;28;20039;-83
2023/10/20 03:21:02;;;;;;;23.48;9.10;;;7.50;99.90;;;;;;4197326;28;20076;-84
2023/10/20 03:23:03;;;;;;;17.35;8.00;;;7.50;99.90;;;;;;4215829;28;20079;-83
2023/10/20 03:25:07;;;;;;;15.65;7.32;;;7.80;99.90;;;;;;4214820;28;20047;-83
2023/10/20 03:27:08;;;;;;;15.88;8.23;;;7.50;99.90;;;;;;4229317;28;20047;-83
2023/10/20 03:29:10;;;;;;;19.17;8.45;;;8.10;99.90;;;;;;4200632;28;20044;-83
2023/10/20 03:31:11;;;;;;;21.05;9.63;;;7.60;99.90;;;;;;4222710;28;20047;-82
2023/10/20 03:33:13;;;;;;;15.00;7.88;;;7.50;99.90;;;;;;4237507;28;20550;-83
2023/10/20 03:35:16;;;;;;;19.15;7.97;;;7.50;99.90;;;;;;4234673;28;20047;-84
2023/10/20 03:37:17;;;;;;;16.58;8.00;;;7.50;99.90;;;;;;4217520;28;20224;-83
2023/10/20 03:39:21;;;;;;;15.88;8.57;;;7.50;99.90;;;;;;4210665;28;20042;-83
2023/10/20 03:41:22;;;;;;;22.38;8.70;;;7.60;99.90;;;;;;4218436;28;20035;-83
2023/10/20 03:43:24;;;;;;;15.57;7.72;;;7.50;99.90;;;;;;4227920;28;20107;-83
2023/10/20 03:45:25;;;;;;;18.08;7.30;;;7.50;99.90;;;;;;4218464;28;20621;-83
2023/10/20 03:47:31;;;;;;;16.20;7.75;;;7.60;99.90;;;;;;4209441;28;20051;-83
2023/10/20 03:49:34;;;;;;;15.45;7.43;;;7.50;99.90;;;;;;4219441;27;20114;-83
2023/10/20 03:51:37;;;;;;;18.20;7.32;;;7.70;99.90;;;;;;4225234;28;20040;-83
2023/10/20 03:53:47;;;;;;;14.43;6.93;;;7.50;99.90;;;;;;4203773;28;20052;-83
2023/10/20 03:56:02;;;;;;;16.05;7.32;;;7.50;99.90;;;;;;4241970;28;20038;-83
2023/10/20 03:58:03;;;;;;;15.10;7.00;;;7.50;99.90;;;;;;4241641;28;20054;-83
2023/10/20 04:00:15;;;;;;;15.63;7.57;;;7.50;99.90;;;;;;4239240;28;20039;-83
2023/10/20 04:02:16;;;;;;;15.73;6.32;;;7.50;99.90;;;;;;4242228;28;20046;-83
2023/10/20 04:04:17;;;;;;;15.40;6.75;;;7.50;99.90;;;;;;4230583;28;20055;-83
2023/10/20 04:06:19;;;;;;;13.80;6.57;;;7.50;99.90;;;;;;4236893;28;20118;-83
2023/10/20 04:08:21;;;;;;;13.35;6.20;;;7.60;99.90;;;;;;4245293;27;20489;-83
2023/10/20 04:10:23;;;;;;;13.93;7.03;;;8.20;99.90;;;;;;4210699;28;20035;-83
2023/10/20 04:12:23;;;;;;;12.50;5.65;;;7.50;99.90;;;;;;4251662;27;20043;-83
2023/10/20 04:14:24;;;;;;;12.90;5.63;;;7.70;99.90;;;;;;4238720;27;20089;-83
2023/10/20 04:16:27;;;;;;;10.07;5.80;;;7.50;99.90;;;;;;4212366;28;20052;-84
2023/10/20 04:18:32;;;;;;;11.48;6.03;;;7.40;99.90;;;;;;4238754;27;20513;-83
2023/10/20 04:20:40;;;;;;;8.05;5.53;;;7.60;99.90;;;;;;4230428;28;20122;-83
2023/10/20 04:22:44;;;;;;;9.55;5.55;;;7.50;99.90;;;;;;4219071;28;20076;-83
2023/10/20 04:24:45;;;;;;;10.75;4.78;;;7.60;99.90;;;;;;4232064;28;20050;-84
2023/10/20 04:26:47;;;;;;;13.57;5.60;;;7.50;99.90;;;;;;4235838;27;20036;-83
2023/10/20 04:29:02;;;;;;;9.75;5.22;;;7.50;99.90;;;;;;4249808;27;20118;-83
2023/10/20 04:51:28;;;;;;;9.02;4.80;;;7.50;99.90;;;;;;4248876;27;20051;-83
2023/10/20 04:58:34;;;;;;;9.50;4.50;;;7.70;99.90;;;;;;4211015;27;20059;-83
2023/10/20 05:00:36;;;;;;;7.55;4.10;;;8.00;99.90;;;;;;4218839;28;20048;-83
2023/10/20 05:04:52;;;;;;;8.13;4.70;;;7.60;99.90;;;;;;4216693;28;20059;-83
2023/10/20 05:07:05;;;;;;;9.23;4.15;;;7.60;99.90;;;;;;4232362;28;20066;-83
2023/10/20 05:09:09;;;;;;;8.45;4.15;;;7.80;99.90;;;;;;4244972;27;20043;-83
2023/10/20 05:11:10;;;;;;;6.55;3.67;;;7.70;99.90;;;;;;4249876;27;20487;-83
2023/10/20 05:13:12;;;;;;;9.48;4.60;;;7.50;99.90;;;;;;4230656;28;20108;-83
2023/10/20 05:15:13;;;;;;;7.55;3.50;;;7.60;99.90;;;;;;4218111;28;20050;-83
2023/10/20 05:17:15;;;;;;;6.68;4.20;;;7.30;99.90;;;;;;4230463;28;20101;-83
2023/10/20 05:19:16;;;;;;;5.60;3.92;;;7.60;99.90;;;;;;4217240;28;20420;-83
2023/10/20 05:21:18;;;;;;;5.90;3.38;;;7.60;99.90;;;;;;4229665;28;20048;-83
2023/10/20 05:23:19;;;;;;;8.77;3.42;;;8.40;99.90;;;;;;4219246;28;20099;-83
2023/10/20 05:25:20;;;;;;;6.68;3.30;;;7.70;99.90;;;;;;4247790;27;20039;-83
2023/10/20 05:27:20;;;;;;;4.80;3.30;;;7.60;99.90;;;;;;4236682;27;20353;-84
2023/10/20 05:29:21;;;;;;;6.88;2.92;;;8.30;99.90;;;;;;4211979;28;20048;-83
2023/10/20 05:31:25;;;;;;;6.05;3.05;;;7.80;99.90;;;;;;4236255;27;20832;-83
2023/10/20 05:33:26;;;;;;;5.35;2.92;;;8.30;99.90;;;;;;4246105;27;20040;-83
2023/10/20 05:35:28;;;;;;;6.43;3.25;;;7.60;99.90;;;;;;4219540;28;20117;-83
2023/10/20 05:37:29;;;;;;;6.47;2.92;;;8.30;99.90;;;;;;4245441;27;20067;-84
2023/10/20 05:39:31;;;;;;;5.47;2.72;;;8.20;99.90;;;;;;4219749;28;20028;-83
2023/10/20 05:41:32;;;;;;;5.45;2.83;;;7.60;99.90;;;;;;4245149;27;20043;-83
2023/10/20 05:43:33;;;;;;;5.47;2.60;;;7.60;99.90;;;;;;4220402;28;20063;-82
2023/10/20 05:45:40;;;;;;;4.88;2.85;;;7.70;99.90;;;;;;4226907;28;20091;-83
2023/10/20 05:47:42;;;;;;;6.55;2.83;;;7.70;99.90;;;;;;4220805;28;20050;-83
2023/10/20 05:49:42;;;;;;;5.25;2.80;;;8.50;99.90;;;;;;4224873;28;20554;-83
2023/10/20 05:51:45;;;;;;;3.25;2.60;;;7.60;99.90;;;;;;4239252;27;20054;-82
2023/10/20 05:53:45;;;;;;;6.47;2.55;;;7.70;99.90;;;;;;4214886;28;20040;-82
2023/10/20 05:55:46;;;;;;;5.10;2.60;;;8.30;99.90;;;;;;4242894;27;20038;-83
2023/10/20 05:57:47;;;;;;;5.43;2.30;;;7.70;99.90;;;;;;4239760;27;20043;-83
2023/10/20 05:59:48;;;;;;;4.35;2.15;;;7.70;99.90;;;;;;4231751;28;20078;-82
2023/10/20 06:01:50;;;;;;;4.97;2.70;;;7.70;99.90;;;;;;4242356;27;20391;-82
2023/10/20 06:03:52;;;;;;;4.50;2.15;;;7.60;99.90;;;;;;4221679;28;20591;-83
2023/10/20 06:05:58;;;;;;;2.90;2.08;;;7.70;99.90;;;;;;4223228;28;20068;-82
2023/10/20 06:07:59;;;;;;;5.13;2.05;;;7.60;99.90;;;;;;4213831;28;20165;-82
2023/10/20 06:10:00;;;;;;;3.03;1.75;;;7.60;99.90;;;;;;4222407;28;20052;-83
2023/10/20 06:12:03;;;;;;;4.75;1.95;;;7.70;99.90;;;;;;4241570;27;20559;-82
2023/10/20 06:14:04;;;;;;;4.95;1.90;;;7.60;99.90;;;;;;4228884;28;20055;-83
2023/10/20 06:16:08;;;;;;;5.95;1.77;;;7.60;99.90;;;;;;4249753;27;20508;-83
2023/10/20 06:18:09;;;;;;;4.65;1.80;;;7.60;99.90;;;;;;4238628;27;20100;-83
2023/10/20 06:20:10;;;;;;;3.10;1.90;;;7.80;99.90;;;;;;4231445;28;20520;-83
2023/10/20 06:22:11;;;;;;;3.85;2.10;;;7.60;99.90;;;;;;4204645;28;20045;-83
2023/10/20 06:24:13;;;;;;;3.20;1.42;;;7.60;99.90;;;;;;4234474;27;20132;-83
2023/10/20 06:26:14;;;;;;;4.13;2.30;;;7.60;99.90;;;;;;4207826;28;20048;-83
2023/10/20 06:28:15;;;;;;;3.30;2.00;;;7.60;99.90;;;;;;4219715;28;20549;-83
2023/10/20 06:30:21;;;;;;;3.58;1.75;;;7.60;99.90;;;;;;4225470;28;20039;-82
2023/10/20 06:32:25;;;;;;;5.50;2.22;;;7.60;99.90;;;;;;4236009;28;20047;-82
2023/10/20 06:34:30;;;;;;;3.85;1.77;;;7.50;99.90;;;;;;4244993;27;20098;-82
2023/10/20 06:36:32;;;;;;;3.60;2.45;;;7.60;99.90;;;;;;4236023;27;20047;-83
2023/10/20 06:38:44;;;;;;;3.47;1.88;;;7.50;99.90;;;;;;4240194;28;20044;-82
2023/10/20 06:40:47;;;;;;;4.65;2.47;;;7.60;99.90;;;;;;4242616;28;20047;-82
2023/10/20 06:42:47;;;;;;;3.67;1.90;;;7.50;99.90;;;;;;4234727;28;20127;-82
2023/10/20 06:44:49;;;;;;;3.20;1.38;;;7.50;99.90;;;;;;4236946;28;20392;-82
2023/10/20 06:46:51;;;;;;;3.35;1.98;;;7.50;99.90;;;;;;4251798;27;20043;-82
2023/10/20 06:48:51;;;;;;;2.75;1.95;;;7.80;99.90;;;;;;4234815;28;20771;-83
2023/10/20 06:50:53;;;;;;;3.97;1.63;;;7.60;99.90;;;;;;4250638;27;20086;-82
2023/10/20 06:52:53;;;;;;;5.07;1.98;;;7.50;99.90;;;;;;4237006;27;20075;-84
2023/10/20 06:54:56;;;;;;;4.30;1.90;;;7.50;99.90;;;;;;4235920;28;20039;-81
2023/10/20 06:56:57;;;;;;;5.20;2.08;;;7.90;99.90;;;;;;4234519;28;20055;-81
2023/10/20 06:58:57;;;;;;;4.13;2.17;;;7.50;99.90;;;;;;4254622;27;20049;-81
2023/10/20 07:01:06;;;;;;;5.78;2.30;;;7.90;99.90;;;;;;4215695;28;20408;-81
2023/10/20 07:03:07;;;;;;;3.53;1.70;;;7.50;99.90;;;;;;4228834;28;20239;-81
2023/10/20 07:05:08;;;;;;;3.42;1.85;;;7.20;99.90;;;;;;4215563;28;20158;-80
2023/10/20 07:07:13;;;;;;;4.40;1.90;;;7.80;99.90;;;;;;4241475;27;20051;-81
2023/10/20 07:09:17;;;;;;;6.72;1.80;;;7.90;99.90;;;;;;4228523;28;20487;-81
2023/10/20 07:11:17;;;;;;;3.17;1.80;;;7.60;99.90;;;;;;4216628;28;20090;-81
2023/10/20 07:13:18;;;;;;;3.15;1.88;;;7.50;99.90;;;;;;4245469;28;20036;-82
2023/10/20 07:15:19;;;;;;;3.13;1.83;;;7.50;99.90;;;;;;4235921;28;20042;-82
2023/10/20 07:17:20;;;;;;;6.40;1.95;;;7.50;99.90;;;;;;4211228;28;20049;-81
2023/10/20 07:19:21;;;;;;;6.22;1.58;;;7.60;99.90;;;;;;4235997;28;20046;-82
2023/10/20 07:21:21;;;;;;;3.78;1.67;;;7.90;99.90;;;;;;4227502;28;20081;-81
2023/10/20 07:23:22;;;;;;;2.78;1.65;;;7.50;99.90;;;;;;4217794;28;20396;-81
2023/10/20 07:25:23;;;;;;;2.45;1.42;;;7.90;99.90;;;;;;4245245;28;20032;-81
2023/10/20 07:27:25;;;;;;;3.83;1.90;;;7.50;99.90;;;;;;4201277;28;20534;-81
2023/10/20 07:29:26;;;;;;;3.33;1.80;;;7.50;99.90;;;;;;4228491;28;20441;-81
2023/10/20 07:31:27;;;;;;;3.17;1.80;;;8.00;99.90;;;;;;4224684;28;20062;-80
2023/10/20 07:33:29;;;;;;;3.28;1.58;;;7.50;99.90;;;;;;4259466;28;20042;-80
2023/10/20 07:35:32;;;;;;;4.07;1.80;;;7.50;99.90;;;;;;4247449;28;20059;-80
2023/10/20 07:37:35;;;;;;;2.28;1.63;;;7.40;99.90;;;;;;4249449;28;20020;-80
2023/10/20 07:39:36;;;;;;;2.20;1.45;;;7.50;99.90;;;;;;4213639;28;20054;-80
2023/10/20 07:41:36;;;;;;;2.05;1.60;;;7.50;99.90;;;;;;4244788;28;20411;-80
2023/10/20 07:43:38;;;;;;;3.33;1.95;;;7.50;99.90;;;;;;4223171;28;20047;-81
2023/10/20 07:45:41;;;;;;;4.60;1.30;;;7.40;99.90;;;;;;4230339;28;20526;-81
2023/10/20 07:47:41;;;;;;;3.58;1.83;;;7.40;99.90;;;;;;4219730;28;20043;-80
2023/10/20 07:49:42;;;;;;;2.80;1.73;;;7.40;99.90;;;;;;4249619;27;20071;-81
2023/10/20 07:51:43;;;;;;;3.83;1.70;;;7.70;99.90;;;;;;4230531;28;20048;-81
2023/10/20 07:53:46;;;;;;;2.97;1.63;;;7.30;99.90;;;;;;4244458;27;20071;-81
2023/10/20 07:55:52;;;;;;;3.28;1.77;;;7.30;99.90;;;;;;4249119;27;20055;-81
2023/10/20 07:58:03;;;;;;;4.53;2.17;;;7.30;99.90;;;;;;4229407;28;20043;-82
2023/10/20 08:00:04;;;;;;;4.70;1.92;;;7.30;99.90;;;;;;4246496;27;20039;-82
2023/10/20 08:02:05;;;;;;;2.97;2.03;;;7.30;99.90;;;;;;4230698;28;20157;-82
2023/10/20 08:04:07;;;;;;;2.97;1.73;;;7.30;99.90;;;;;;4227124;28;20417;-82
2023/10/20 08:06:08;;;;;;;2.67;1.65;;;7.80;99.90;;;;;;4248060;27;20522;-81
2023/10/20 08:08:11;;;;;;;3.75;1.83;;;7.30;99.90;;;;;;4236083;28;20044;-82
2023/10/20 08:10:12;;;;;;;4.70;1.77;;;7.20;99.90;;;;;;4218281;28;20151;-81
2023/10/20 08:12:13;;;;;;;4.80;2.08;;;7.20;99.90;;;;;;4233754;28;20112;-82
2023/10/20 08:14:14;;;;;;;3.08;1.90;;;7.70;99.90;;;;;;4244329;27;20039;-81
2023/10/20 08:16:15;;;;;;;3.58;1.58;;;7.20;99.90;;;;;;4215236;28;20508;-81
2023/10/20 08:18:16;;;;;;;2.80;1.73;;;8.00;99.90;;;;;;4231858;28;20048;-81
2023/10/20 08:20:17;;;;;;;2.85;1.50;;;7.20;99.90;;;;;;4246193;27;20421;-81
2023/10/20 08:22:18;;;;;;;2.67;1.23;;;7.20;99.90;;;;;;4222814;28;20044;-81
2023/10/20 08:24:19;;;;;;;4.05;1.50;;;7.40;99.90;;;;;;4221531;28;20126;-81
2023/10/20 08:26:21;;;;;;;3.85;1.48;;;7.40;99.90;;;;;;4227686;28;20609;-81
2023/10/20 08:28:25;;;;;;;2.13;1.13;;;7.20;99.90;;;;;;4252134;27;20031;-82
2023/10/20 08:30:25;;;;;;;2.28;1.17;;;7.40;99.90;;;;;;4220953;28;20431;-81
2023/10/20 08:32:26;;;;;;;3.63;1.33;;;7.20;99.90;;;;;;4212848;28;20044;-84
2023/10/20 08:34:30;;;;;;;2.63;1.40;;;7.20;99.90;;;;;;4221932;28;20577;-81
2023/10/20 08:36:31;;;;;;;2.53;1.60;;;7.60;99.90;;;;;;4238436;27;20047;-82
2023/10/20 08:38:33;;;;;;;3.42;1.48;;;7.20;99.90;;;;;;4230031;28;20353;-82
2023/10/20 08:40:34;;;;;;;3.05;1.38;;;7.10;99.90;;;;;;4219267;28;20043;-82
2023/10/20 08:42:38;;;;;;;6.45;2.80;;;7.10;99.90;;;;;;4234879;28;20039;-82
2023/10/20 08:44:39;;;;;;;31.92;9.75;;;7.20;99.90;;;;;;4248578;27;20364;-82
2023/10/20 08:46:41;;;;;;;14.27;3.85;;;7.10;99.90;;;;;;4216836;28;20051;-82
2023/10/20 08:48:43;;;;;;;2.75;1.45;;;7.20;99.90;;;;;;4218624;28;20063;-82
2023/10/20 08:50:47;;;;;;;3.40;1.50;;;7.10;99.90;;;;;;4199766;28;20080;-83
2023/10/20 08:52:51;;;;;;;6.90;2.83;;;7.10;99.90;;;;;;4232365;28;20115;-82
2023/10/20 08:54:53;;;;;;;4.75;1.60;;;7.10;99.90;;;;;;4199842;28;20056;-83
2023/10/20 08:56:54;;;;;;;4.93;1.98;;;7.10;99.90;;;;;;4232826;28;20131;-83
2023/10/20 08:58:55;;;;;;;6.07;3.00;;;7.10;99.90;;;;;;4216467;28;20538;-83
2023/10/20 09:00:57;;;;;;;3.00;1.98;;;7.10;99.90;;;;;;4251432;27;20047;-83
2023/10/20 09:02:59;;;;;;;3.63;1.40;;;7.10;99.90;;;;;;4199459;28;20059;-83
2023/10/20 09:05:00;;;;;;;4.32;1.83;;;7.10;99.90;;;;;;4223257;28;20047;-82
2023/10/20 09:07:12;;;;;;;2.55;1.23;;;7.10;99.90;;;;;;4226243;28;20047;-83
2023/10/20 09:09:14;;;;;;;2.35;1.27;;;7.10;99.90;;;;;;4201395;28;20519;-83
2023/10/20 09:11:15;;;;;;;6.78;2.42;;;7.50;99.90;;;;;;4218887;28;20059;-83
2023/10/20 09:13:15;;;;;;;4.15;2.22;;;7.70;99.90;;;;;;4236552;27;20476;-83
2023/10/20 09:15:17;;;;;;;3.13;1.58;;;6.80;99.90;;;;;;4248171;27;20047;-83
2023/10/20 09:17:22;;;;;;;3.08;1.40;;;7.80;99.90;;;;;;4244717;27;20066;-82
2023/10/20 09:19:23;;;;;;;1.83;1.00;;;7.10;99.90;;;;;;4250241;27;20039;-83
2023/10/20 09:21:25;;;;;;;3.28;1.20;;;7.00;99.90;;;;;;4231602;28;20404;-82
2023/10/20 09:23:26;;;;;;;2.95;1.30;;;7.00;99.90;;;;;;4207054;28;20040;-81
2023/10/20 09:25:27;;;;;;;2.83;1.52;;;6.80;99.90;;;;;;4233832;27;20047;-82
2023/10/20 09:27:28;;;;;;;2.88;1.63;;;7.00;99.90;;;;;;4219973;28;20085;-82
2023/10/20 09:29:30;;;;;;;2.78;1.17;;;7.00;99.90;;;;;;4245925;27;20048;-82
2023/10/20 09:31:33;;;;;;;2.30;1.20;;;7.60;99.90;;;;;;4219936;28;20048;-82
2023/10/20 09:33:35;;;;;;;2.63;1.23;;;6.90;99.90;;;;;;4210284;28;20071;-82
2023/10/20 09:35:39;;;;;;;2.15;0.88;;;7.00;99.90;;;;;;4220695;28;20092;-83
2023/10/20 09:37:41;;;;;;;2.75;1.50;;;6.90;99.90;;;;;;4250418;27;20079;-81
2023/10/20 09:39:46;;;;;;;1.95;1.10;;;7.00;99.90;;;;;;4243923;27;20488;-82
2023/10/20 09:41:50;;;;;;;3.30;1.17;;;7.00;99.90;;;;;;4222065;28;20058;-82
2023/10/20 09:44:12;;;;;;;2.47;1.30;;;7.00;99.90;;;;;;4231869;28;20116;-82
2023/10/20 09:46:26;;;;;;;1.48;0.60;;;7.00;99.90;;;;;;4203976;28;20051;-82
2023/10/20 09:48:27;;;;;;;1.85;0.95;;;7.00;99.90;;;;;;4228595;28;20066;-82
2023/10/20 09:50:31;;;;;;;1.67;1.00;;;7.00;99.90;;;;;;4218549;28;20064;-82
2023/10/20 09:52:36;;;;;;;2.10;1.20;;;7.60;99.90;;;;;;4227679;28;20109;-83
2023/10/20 09:54:38;;;;;;;1.77;0.90;;;6.90;99.90;;;;;;4217407;28;20048;-82
2023/10/20 09:56:43;;;;;;;1.75;0.85;;;6.90;99.90;;;;;;4229251;28;20048;-82
2023/10/20 09:58:43;;;;;;;1.92;0.80;;;7.00;99.90;;;;;;4231880;28;20592;-82
2023/10/20 10:00:46;;;;;;;1.35;0.70;;;6.90;99.90;;;;;;4234394;27;20123;-82
2023/10/20 10:02:58;;;;;;;2.83;1.05;;;6.90;99.90;;;;;;4198262;28;20048;-82
2023/10/20 10:04:59;;;;;;;0.85;0.60;;;7.10;99.90;;;;;;4249509;27;20051;-83
2023/10/20 10:07:03;;;;;;;1.38;0.90;;;6.90;99.90;;;;;;4240362;27;20123;-82
2023/10/20 10:09:05;;;;;;;3.20;1.15;;;7.30;99.90;;;;;;4248436;27;20403;-83
2023/10/20 10:11:26;;;;;;;3.10;1.05;;;6.90;99.90;;;;;;4216142;28;20555;-82
2023/10/20 10:13:35;;;;;;;2.50;0.68;;;6.90;99.90;;;;;;4227588;28;20431;-82
2023/10/20 10:15:46;;;;;;;2.17;0.88;;;7.20;99.90;;;;;;4238608;27;20096;-82
2023/10/20 10:17:48;;;;;;;2.83;1.20;;;6.90;99.90;;;;;;4213675;28;20052;-82
2023/10/20 10:19:50;;;;;;;4.63;0.90;;;7.10;99.90;;;;;;4207106;28;20044;-82
2023/10/20 10:21:53;;;;;;;1.65;1.00;;;6.90;99.90;;;;;;4233201;28;20113;-82
2023/10/20 10:24:14;;;;;;;2.85;0.93;;;6.90;99.90;;;;;;4241426;27;20046;-82
2023/10/20 10:26:14;;;;;;;2.70;0.82;;;6.90;99.90;;;;;;4203473;28;20500;-81
2023/10/20 10:28:18;;;;;;;3.85;1.40;;;7.20;99.90;;;;;;4244187;27;20111;-82
2023/10/20 10:30:27;;;;;;;1.35;0.65;;;7.10;99.90;;;;;;4214133;28;20580;-82
2023/10/20 10:32:32;;;;;;;2.17;0.90;;;6.90;99.90;;;;;;4236649;27;20050;-82
2023/10/20 10:34:41;;;;;;;5.65;1.23;;;6.60;99.90;;;;;;4246304;27;20071;-81
2023/10/20 10:36:47;;;;;;;1.25;0.68;;;6.90;99.90;;;;;;4216220;28;20051;-82
2023/10/20 10:38:48;;;;;;;4.60;0.80;;;6.80;99.90;;;;;;4229701;28;20465;-82
2023/10/20 10:40:51;;;;;;;1.10;0.50;;;7.30;99.90;;;;;;4198797;28;20040;-82
2023/10/20 10:42:53;;;;;;;4.03;1.00;;;6.80;99.90;;;;;;4230847;28;20039;-82
2023/10/20 10:44:53;;;;;;;3.22;0.60;;;6.80;99.90;;;;;;4232584;28;20148;-82
2023/10/20 10:46:54;;;;;;;8.77;3.53;;;7.00;99.90;;;;;;4249000;27;20035;-82
2023/10/20 10:49:09;;;;;;;2.30;1.13;;;6.80;99.90;;;;;;4233075;28;20035;-82
2023/10/20 10:51:10;;;;;;;1.27;0.73;;;6.80;99.90;;;;;;4199452;28;20056;-82
2023/10/20 10:53:13;;;;;;;3.03;1.20;;;6.80;99.90;;;;;;4212681;28;20095;-82
2023/10/20 10:55:14;;;;;;;0.90;0.40;;;6.80;99.90;;;;;;4200118;28;20072;-82
2023/10/20 10:57:16;;;;;;;1.95;0.88;;;6.80;99.90;;;;;;4247125;27;20063;-83
2023/10/20 10:59:19;;;;;;;3.85;1.05;;;6.80;99.90;;;;;;4235203;27;20043;-82
2023/10/20 11:01:20;;;;;;;1.75;1.05;;;6.80;99.90;;;;;;4249849;27;20114;-82
2023/10/20 11:03:21;;;;;;;2.75;0.65;;;6.80;99.90;;;;;;4210687;28;20040;-82
2023/10/20 11:05:22;;;;;;;2.47;1.10;;;6.80;99.90;;;;;;4236059;28;20044;-83
2023/10/20 11:07:23;;;;;;;1.20;0.50;;;7.20;99.90;;;;;;4249072;27;20114;-83
2023/10/20 11:09:29;;;;;;;1.45;0.75;;;7.30;99.90;;;;;;4245573;27;20040;-82
2023/10/20 11:11:31;;;;;;;0.95;0.57;;;6.80;99.90;;;;;;4202217;28;20532;-83